createdAt,value
2023-05-04T00:07:08.868Z,9.5
2023-05-04T00:22:18.195Z,7.5
2023-05-04T00:37:27.946Z,4.6
2023-05-04T00:52:37.957Z,6.3
2023-05-04T01:07:47.219Z,5.2
2023-05-04T01:22:56.536Z,4.5
2023-05-04T01:38:05.826Z,6.1
2023-05-04T01:53:15.744Z,7.8
2023-05-04T02:08:25.206Z,6.7
2023-05-04T02:23:34.670Z,7.6
2023-05-04T02:38:44.242Z,7.5
2023-05-04T02:53:53.921Z,6.5
2023-05-04T03:09:03.982Z,4.3
2023-05-04T03:24:13.634Z,9.2
2023-05-04T03:39:22.701Z,8.6
2023-05-04T03:54:32.572Z,5.1
2023-05-04T04:09:42.087Z,5.8
2023-05-04T04:24:51.504Z,6.2
2023-05-04T04:40:01.096Z,12.4
2023-05-04T04:55:10.878Z,12.6
2023-05-04T05:10:22.427Z,10.8
2023-05-04T05:25:32.726Z,10.3
2023-05-04T05:40:42.875Z,11.9
2023-05-04T05:55:52.872Z,18.9
2023-05-04T06:11:02.768Z,13.8
2023-05-04T06:26:13.167Z,13.3
2023-05-04T06:41:23.433Z,12.6
2023-05-04T06:56:33.623Z,15
2023-05-04T07:11:43.120Z,19.1
2023-05-04T07:26:53.027Z,15
2023-05-04T07:42:03.450Z,6.6
2023-05-04T07:57:14.145Z,8.5
2023-05-04T08:12:24.070Z,10.1
2023-05-04T08:27:34.055Z,11.2
2023-05-04T08:42:44.438Z,8.9
2023-05-04T08:57:54.844Z,11.5
2023-05-04T09:13:05.163Z,10.2
2023-05-04T09:28:15.562Z,9
2023-05-04T09:43:25.698Z,8.4
2023-05-04T09:58:35.553Z,9.8
2023-05-04T10:13:45.690Z,12.1
2023-05-04T10:28:55.596Z,7.5
2023-05-04T10:44:05.598Z,6
2023-05-04T10:59:15.984Z,11.8
2023-05-04T11:14:26.016Z,7.4
2023-05-04T11:29:37.189Z,5.2
2023-05-04T11:44:48.645Z,4.7
2023-05-04T11:59:58.683Z,5.4
2023-05-04T12:15:09.567Z,9.8
2023-05-04T12:30:19.474Z,6.6
2023-05-04T12:45:29.511Z,6.7
2023-05-04T13:00:39.841Z,6.7
2023-05-04T13:15:53.459Z,5.3
2023-05-04T13:31:04.424Z,7
2023-05-04T13:46:15.151Z,6.2
2023-05-04T14:01:26.001Z,5.8
2023-05-04T14:16:38.155Z,4.1
2023-05-04T14:31:48.046Z,5.3
2023-05-04T14:46:58.059Z,5.9
2023-05-04T15:02:09.032Z,6.2
2023-05-04T15:17:22.274Z,4.3
2023-05-04T15:32:32.226Z,6.7
2023-05-04T15:47:42.021Z,10.4
2023-05-04T16:02:52.413Z,8.7
2023-05-04T16:18:02.520Z,8.6
2023-05-04T16:33:12.335Z,7.2
2023-05-04T16:48:22.500Z,7.8
2023-05-04T17:03:32.670Z,9.1
2023-05-04T17:18:42.323Z,6.1
2023-05-04T17:33:51.694Z,6.6
2023-05-04T17:49:02.324Z,5.1
2023-05-04T18:04:11.682Z,6.6
2023-05-04T18:19:21.396Z,10.5
2023-05-04T18:34:30.551Z,9.8
2023-05-04T18:49:39.893Z,8.6
2023-05-04T19:04:49.636Z,7.5
2023-05-04T19:19:59.075Z,9.4
2023-05-04T19:35:08.307Z,9.8
2023-05-04T19:50:22.624Z,8.5
2023-05-04T20:05:32.252Z,7.3
2023-05-04T20:20:41.642Z,7.7
2023-05-04T20:35:51.299Z,7.2
2023-05-04T20:51:15.805Z,5.6
2023-05-04T21:06:25.872Z,4.6
2023-05-04T21:21:36.073Z,9.5
2023-05-04T21:36:45.659Z,5.5
2023-05-04T21:51:55.599Z,6.2
2023-05-04T22:07:05.890Z,6.9
2023-05-04T22:22:15.836Z,7.5
2023-05-04T22:37:27.201Z,5.4
2023-05-04T22:52:37.524Z,7.6
2023-05-04T23:07:47.200Z,6.6
2023-05-04T23:22:56.487Z,5.2
2023-05-04T23:38:05.916Z,6.1
2023-05-04T23:53:15.708Z,6.7
